ADDS METAR Data INFO
IDs: Format: Raw Decoded Include TAF

Data at: 1951 UTC 14 Aug 2018

KAEG 141947Z VRB04KT 10SM SKC 31/08 A3012
KAEG 141847Z 00000KT 10SM SKC 29/09 A3014
KAEG 141747Z 08005KT 10SM SKC 28/09 A3015
KAEG 141647Z 00000KT 10SM SKC 26/09 A3016
KAEG 141547Z 01004KT 10SM SKC 23/08 A3015
KAEG 141447Z 01004KT 10SM SKC 21/08 A3015
KAEG 141347Z 36007KT 10SM SKC 18/08 A3014
KAEG 141250Z 33004KT 10SM SKC 15/07 A3013
KAEG 141150Z 00000KT 10SM SKC 14/06 A3011
KAEG 141135Z AUTO 00000KT 10SM CLR 14/06 A3011 RMK AO2 T01360058
KAEG 141115Z AUTO 00000KT 10SM CLR 14/06 A3010 RMK AO2 T01430060
KAEG 141055Z AUTO 00000KT 10SM CLR 15/06 A3010 RMK AO2 T01450059
KAEG 141035Z AUTO 00000KT 10SM CLR 16/07 A3010 RMK AO2 T01630065
KAEG 141015Z AUTO 00000KT 10SM CLR 15/06 A3010 RMK AO2 T01520064
KAEG 140955Z AUTO 00000KT 10SM CLR 15/06 A3010 RMK AO2 T01460063
KAEG 140935Z AUTO 31003KT 10SM CLR 16/07 A3009 RMK AO2 T01600065
KAEG 140915Z AUTO 31005KT 10SM CLR 15/07 A3011 RMK AO2 T01540066
KAEG 140855Z AUTO 32005KT 10SM CLR 16/07 A3012 RMK AO2 T01620067
KAEG 140835Z AUTO 34003KT 10SM CLR 16/07 A3012 RMK AO2 T01620065
KAEG 140815Z AUTO 00000KT 10SM CLR 17/07 A3011 RMK AO2 T01660066
KAEG 140755Z AUTO 00000KT 10SM CLR 19/07 A3012 RMK AO2 T01940073
KAEG 140735Z AUTO 05003KT 10SM CLR 19/07 A3012 RMK AO2 LTG DSNT S T01920072
KAEG 140715Z AUTO 06003KT 10SM CLR 21/07 A3012 RMK AO2 T02060072
KAEG 140655Z AUTO 22003KT 10SM CLR 19/08 A3012 RMK AO2 T01920077 403270126
KAEG 140635Z AUTO 24006KT 10SM CLR 20/08 A3012 RMK AO2 T02020077
KAEG 140615Z AUTO 28006KT 10SM CLR 22/08 A3012 RMK AO2 T02160078
KAEG 140555Z AUTO 27009KT 10SM CLR 22/07 A3012 RMK AO2 T02200072 10327 20202
KAEG 140535Z AUTO 26007KT 10SM CLR 22/07 A3011 RMK AO2 T02150070
KAEG 140515Z AUTO 29008KT 10SM CLR 21/07 A3011 RMK AO2 T02120068
KAEG 140455Z AUTO 31004KT 10SM CLR 21/07 A3011 RMK AO2 T02060068
KAEG 140435Z AUTO 24005KT 10SM CLR 21/07 A3010 RMK AO2 T02140068
KAEG 140415Z AUTO 34004KT 10SM CLR 23/07 A3009 RMK AO2 T02250070
KAEG 140355Z AUTO 36004KT 10SM CLR 24/07 A3010 RMK AO2 LTG DSNT S T02400069
KAEG 140247Z 03008KT 10SM SCT100 25/06 A3008
KAEG 140147Z 06016G25KT 10SM SCT120CB 24/07 A3010 RMK CB DSNT ALQDS
KAEG 140047Z 02027G39KT 10SM SCT120CB 32/05 A3007 RMK CB DSNT W-E WSHFT 0042
KAEG 132347Z 00000KT 10SM SCT140CB 33/06 A3002 RMK CB DSNT W-E
KAEG 132247Z 20008KT 10SM SCT140 31/07 A3002 RMK TCU DSNT N
KAEG 132147Z 26005KT 10SM SCT140 31/07 A3006 RMK TCU DSNT N
KAEG 132047Z 28006KT 10SM SKC 30/07 A3010
KAEG 131947Z 24009G14KT 10SM SKC 30/07 A3012
KAEG 131847Z 19007KT 10SM SKC 27/08 A3014
KAEG 131747Z 13007KT 10SM SKC 26/11 A3016
KAEG 131647Z 16006KT 10SM FEW180 23/11 A3018
KAEG 131547Z 16006KT 10SM FEW180 22/11 A3020
KAEG 131447Z 16007KT 10SM FEW180 19/11 A3020
KAEG 131347Z 00000KT 10SM SKC 16/09 A3021
KAEG 131247Z 16004KT 10SM FEW180 14/07 A3019
KAEG 131147Z 00000KT 10SM SKC 14/07 A3019
KAEG 131135Z AUTO 00000KT 10SM CLR 14/09 A3019 RMK AO2 T01430085
KAEG 131115Z AUTO 19004KT 10SM CLR 15/08 A3019 RMK AO2 T01460084
KAEG 131055Z AUTO 00000KT 10SM CLR 15/08 A3019 RMK AO2 T01470080
KAEG 131035Z AUTO 00000KT 10SM CLR 16/09 A3020 RMK AO2 T01600087
KAEG 131015Z AUTO 00000KT 10SM CLR 15/09 A3019 RMK AO2 T01520086
KAEG 130955Z AUTO 18003KT 10SM CLR 15/09 A3020 RMK AO2 T01540086
KAEG 130935Z AUTO 17005KT 10SM CLR 17/09 A3020 RMK AO2 T01650087
KAEG 130915Z AUTO 16007KT 10SM CLR 18/09 A3020 RMK AO2 T01750087
KAEG 130855Z AUTO 17008KT 10SM CLR 18/09 A3020 RMK AO2 T01790086
KAEG 130835Z AUTO 16008KT 10SM CLR 18/08 A3019 RMK AO2 T01770083
KAEG 130815Z AUTO 16006KT 10SM CLR 18/08 A3019 RMK AO2 T01780080
KAEG 130755Z AUTO 19007KT 10SM CLR 18/08 A3019 RMK AO2 T01820077